createdAt,value
2023-04-16T00:00:52.492Z,27.61
2023-04-16T00:01:52.586Z,27.63
2023-04-16T00:02:52.795Z,27.63
2023-04-16T00:04:52.529Z,27.63
2023-04-16T00:05:52.509Z,27.67
2023-04-16T00:06:52.511Z,27.69
2023-04-16T00:07:53.358Z,27.64
2023-04-16T00:08:52.531Z,27.64
2023-04-16T00:09:52.540Z,27.65
2023-04-16T00:10:52.575Z,27.62
2023-04-16T00:11:52.675Z,27.63
2023-04-16T00:12:52.561Z,27.61
2023-04-16T00:13:52.577Z,27.60
2023-04-16T00:14:52.581Z,27.63
2023-04-16T00:15:52.619Z,27.60
2023-04-16T00:16:52.637Z,27.64
2023-04-16T00:17:52.820Z,27.68
2023-04-16T00:18:52.671Z,27.64
2023-04-16T00:19:52.632Z,27.64
2023-04-16T00:20:52.657Z,27.66
2023-04-16T00:21:52.661Z,27.65
2023-04-16T00:22:52.691Z,27.63
2023-04-16T00:23:52.663Z,27.64
2023-04-16T00:24:52.739Z,27.61
2023-04-16T00:25:52.691Z,27.67
2023-04-16T00:26:52.726Z,27.61
2023-04-16T00:27:52.842Z,27.63
2023-04-16T00:28:52.745Z,27.62
2023-04-16T00:29:52.739Z,27.62
2023-04-16T00:30:52.835Z,27.62
2023-04-16T00:31:52.808Z,27.63
2023-04-16T00:32:52.839Z,27.64
2023-04-16T00:33:52.783Z,27.66
2023-04-16T00:34:52.812Z,27.60
2023-04-16T00:35:52.831Z,27.62
2023-04-16T00:36:52.867Z,27.66
2023-04-16T00:37:52.865Z,27.68
2023-04-16T00:38:52.882Z,27.65
2023-04-16T00:39:52.966Z,27.64
2023-04-16T00:40:52.912Z,27.65
2023-04-16T00:41:52.936Z,27.64
2023-04-16T00:42:52.951Z,27.64
2023-04-16T00:43:52.980Z,27.65
2023-04-16T00:44:52.939Z,27.67
2023-04-16T00:45:53.120Z,27.62
2023-04-16T00:46:52.990Z,27.65
2023-04-16T00:47:53.022Z,27.62
2023-04-16T00:48:53.026Z,27.65
2023-04-16T00:49:53.047Z,27.58
2023-04-16T00:50:53.049Z,27.62
2023-04-16T00:51:53.376Z,27.57
2023-04-16T00:52:53.094Z,27.64
2023-04-16T00:53:53.080Z,27.64
2023-04-16T00:54:53.156Z,27.64
2023-04-16T00:55:53.130Z,27.66
2023-04-16T00:56:53.114Z,27.61
2023-04-16T00:57:53.135Z,27.60
2023-04-16T00:58:53.158Z,27.62
2023-04-16T00:59:53.170Z,27.61
2023-04-16T01:00:53.200Z,27.65
2023-04-16T01:01:53.249Z,27.61
2023-04-16T01:02:53.455Z,27.62
2023-04-16T01:03:53.331Z,27.65
2023-04-16T01:04:53.245Z,27.61
2023-04-16T01:05:53.237Z,27.67
2023-04-16T01:06:53.254Z,27.60
2023-04-16T01:07:53.329Z,27.61
2023-04-16T01:08:53.286Z,27.58
2023-04-16T01:09:53.367Z,27.62
2023-04-16T01:10:53.334Z,27.66
2023-04-16T01:11:53.358Z,27.66
2023-04-16T01:12:53.360Z,27.65
2023-04-16T01:13:53.884Z,27.61
2023-04-16T01:14:53.397Z,27.64
2023-04-16T01:15:53.447Z,27.65
2023-04-16T01:16:53.440Z,27.64
2023-04-16T01:17:53.491Z,27.66
2023-04-16T01:18:53.473Z,27.65
2023-04-16T01:19:53.509Z,27.64
2023-04-16T01:20:53.470Z,27.62
2023-04-16T01:21:53.481Z,27.62
2023-04-16T01:22:53.504Z,27.64
2023-04-16T01:23:53.521Z,27.61
2023-04-16T01:24:53.546Z,27.61
2023-04-16T01:25:53.566Z,27.59
2023-04-16T01:26:53.596Z,27.62
2023-04-16T01:27:53.554Z,27.68
2023-04-16T01:28:53.611Z,27.59
2023-04-16T01:29:53.581Z,27.66
2023-04-16T01:30:53.595Z,27.61
2023-04-16T01:31:53.692Z,27.65
2023-04-16T01:32:53.674Z,27.66
2023-04-16T01:33:53.667Z,27.62
2023-04-16T01:34:53.644Z,27.62
2023-04-16T01:35:53.645Z,27.62
2023-04-16T01:36:53.682Z,27.59
2023-04-16T01:37:53.712Z,27.61
2023-04-16T01:38:53.717Z,27.62
2023-04-16T01:39:53.726Z,27.65
2023-04-16T01:40:53.737Z,27.62
2023-04-16T01:41:53.759Z,27.61
2023-04-16T01:42:53.807Z,27.62
2023-04-16T01:43:53.782Z,27.59
2023-04-16T01:44:53.821Z,27.62
2023-04-16T01:45:53.923Z,27.65
2023-04-16T01:46:53.895Z,27.61
2023-04-16T01:47:53.900Z,27.64
2023-04-16T01:48:53.887Z,27.65
2023-04-16T01:49:53.914Z,27.62
2023-04-16T01:50:53.925Z,27.64
2023-04-16T01:51:53.960Z,27.65
2023-04-16T01:52:53.950Z,27.61
2023-04-16T01:53:53.989Z,27.59
2023-04-16T01:54:54.015Z,27.62
2023-04-16T01:55:54.007Z,27.61
2023-04-16T01:56:54.017Z,27.62
2023-04-16T01:57:54.054Z,27.61
2023-04-16T01:58:54.070Z,27.62
2023-04-16T01:59:54.058Z,27.59
2023-04-16T02:00:54.174Z,27.64
2023-04-16T02:01:54.171Z,27.59
2023-04-16T02:02:54.220Z,27.58
2023-04-16T02:03:54.203Z,27.61
2023-04-16T02:04:54.137Z,27.56
2023-04-16T02:05:54.168Z,27.58
2023-04-16T02:06:54.184Z,27.59
2023-04-16T02:07:54.227Z,27.59
2023-04-16T02:08:54.244Z,27.59
2023-04-16T02:09:54.240Z,27.59
2023-04-16T02:10:54.245Z,27.62
2023-04-16T02:11:54.266Z,27.62
2023-04-16T02:12:54.282Z,27.61
2023-04-16T02:13:54.327Z,27.62
2023-04-16T02:14:54.318Z,27.61
2023-04-16T02:15:54.355Z,27.59
2023-04-16T02:16:54.482Z,27.59
2023-04-16T02:17:54.440Z,27.66
2023-04-16T02:18:54.384Z,27.64
2023-04-16T02:19:54.415Z,27.60
2023-04-16T02:20:54.469Z,27.60
2023-04-16T02:21:54.448Z,27.61
2023-04-16T02:22:54.503Z,27.65
2023-04-16T02:23:54.471Z,27.62
2023-04-16T02:24:54.494Z,27.60
2023-04-16T02:25:54.523Z,27.62
2023-04-16T02:26:54.573Z,27.59
2023-04-16T02:27:54.545Z,27.59
2023-04-16T02:28:54.571Z,27.65
2023-04-16T02:29:54.608Z,27.61
2023-04-16T02:30:54.652Z,27.59
2023-04-16T02:31:54.677Z,27.59
2023-04-16T02:32:54.719Z,27.60
2023-04-16T02:33:54.616Z,27.56
2023-04-16T02:34:54.663Z,27.60
2023-04-16T02:35:54.664Z,27.59
2023-04-16T02:36:54.707Z,27.60
2023-04-16T02:37:54.722Z,27.58
2023-04-16T02:38:54.700Z,27.62
2023-04-16T02:39:54.733Z,27.58
2023-04-16T02:40:54.737Z,27.53
2023-04-16T02:41:54.764Z,27.55
2023-04-16T02:42:54.824Z,27.62
2023-04-16T02:43:54.805Z,27.60
2023-04-16T02:44:54.816Z,27.59
2023-04-16T02:45:54.876Z,27.56
2023-04-16T02:46:54.855Z,27.58
2023-04-16T02:47:54.899Z,27.60
2023-04-16T02:48:54.894Z,27.58
2023-04-16T02:49:54.908Z,27.60
2023-04-16T02:50:54.902Z,27.60
2023-04-16T02:51:54.929Z,27.56
2023-04-16T02:52:55.422Z,27.56
2023-04-16T02:53:54.922Z,27.55
2023-04-16T02:54:54.956Z,27.58
2023-04-16T02:55:54.996Z,27.58
2023-04-16T02:56:54.988Z,27.63
2023-04-16T02:57:55.001Z,27.60
2023-04-16T02:58:55.034Z,27.58
2023-04-16T02:59:55.049Z,27.58
2023-04-16T03:00:55.107Z,27.56
2023-04-16T03:01:55.263Z,27.59
2023-04-16T03:02:55.263Z,27.58
2023-04-16T03:03:55.129Z,27.60
2023-04-16T03:04:55.139Z,27.60
2023-04-16T03:05:55.143Z,27.58
2023-04-16T03:06:55.171Z,27.60
2023-04-16T03:07:55.218Z,27.60
2023-04-16T03:08:55.240Z,27.63
2023-04-16T03:09:55.188Z,27.62
2023-04-16T03:10:55.251Z,27.56
2023-04-16T03:11:55.253Z,27.53
2023-04-16T03:12:55.258Z,27.62
2023-04-16T03:13:55.301Z,27.63
2023-04-16T03:14:55.326Z,27.58
2023-04-16T03:15:55.390Z,27.56
2023-04-16T03:16:55.364Z,27.58
2023-04-16T03:17:55.385Z,27.58
2023-04-16T03:18:55.391Z,27.62
2023-04-16T03:19:55.420Z,27.58
2023-04-16T03:20:55.427Z,27.58
2023-04-16T03:21:55.449Z,27.61
2023-04-16T03:22:55.463Z,27.56
2023-04-16T03:23:55.486Z,27.57
2023-04-16T03:24:55.497Z,27.59
2023-04-16T03:25:55.537Z,27.59
2023-04-16T03:26:55.522Z,27.59
2023-04-16T03:27:55.579Z,27.55
2023-04-16T03:28:55.573Z,27.63
2023-04-16T03:29:55.593Z,27.60
2023-04-16T03:30:55.652Z,27.58
2023-04-16T03:31:55.644Z,27.58
2023-04-16T03:32:55.743Z,27.59
2023-04-16T03:33:55.678Z,27.56
2023-04-16T03:34:55.678Z,27.52
2023-04-16T03:35:55.703Z,27.56
2023-04-16T03:36:55.716Z,27.58
2023-04-16T03:37:55.757Z,27.53
2023-04-16T03:38:55.762Z,27.55
2023-04-16T03:39:55.784Z,27.59
2023-04-16T03:40:55.808Z,27.51
2023-04-16T03:41:55.854Z,27.55
2023-04-16T03:42:55.849Z,27.52
2023-04-16T03:43:55.854Z,27.52
2023-04-16T03:44:55.880Z,27.56
2023-04-16T03:45:55.906Z,27.58
2023-04-16T03:46:56.019Z,27.59
2023-04-16T03:47:55.948Z,27.62
2023-04-16T03:48:55.991Z,27.56
2023-04-16T03:49:55.930Z,27.59
2023-04-16T03:50:55.958Z,27.56
2023-04-16T03:51:55.980Z,27.56
2023-04-16T03:52:55.980Z,27.59
2023-04-16T03:53:56.010Z,27.60
2023-04-16T03:54:56.008Z,27.59
2023-04-16T03:55:56.075Z,27.62
2023-04-16T03:56:56.069Z,27.59
2023-04-16T03:57:56.080Z,27.58
2023-04-16T03:58:56.095Z,27.60
2023-04-16T03:59:56.114Z,27.56
2023-04-16T04:00:56.157Z,27.56
2023-04-16T04:01:56.240Z,27.55
2023-04-16T04:02:56.296Z,27.59
2023-04-16T04:03:56.322Z,27.60
2023-04-16T04:04:56.239Z,27.59
2023-04-16T04:05:56.229Z,27.60
2023-04-16T04:06:56.241Z,27.60
2023-04-16T04:07:56.266Z,27.60
2023-04-16T04:08:56.310Z,27.59
2023-04-16T04:09:56.299Z,27.56
2023-04-16T04:10:56.327Z,27.60
2023-04-16T04:11:56.350Z,27.60
2023-04-16T04:12:56.351Z,27.57
2023-04-16T04:13:56.363Z,27.59
2023-04-16T04:14:56.390Z,27.59
2023-04-16T04:15:56.406Z,27.60
2023-04-16T04:16:56.415Z,27.56
2023-04-16T04:17:56.519Z,27.56
2023-04-16T04:18:56.469Z,27.53
2023-04-16T04:20:01.172Z,27.58
2023-04-16T04:20:57.485Z,27.56
2023-04-16T04:21:56.470Z,27.55
2023-04-16T04:22:56.494Z,27.57
2023-04-16T04:23:56.507Z,27.56
2023-04-16T04:24:56.470Z,27.58
2023-04-16T04:25:56.449Z,27.55
2023-04-16T04:26:56.456Z,27.58
2023-04-16T04:27:56.425Z,27.57
2023-04-16T04:28:56.451Z,27.56
2023-04-16T04:29:56.411Z,27.57
2023-04-16T04:30:56.440Z,27.56
2023-04-16T04:31:56.455Z,27.60
2023-04-16T04:32:56.433Z,27.54
2023-04-16T04:33:56.485Z,27.59
2023-04-16T04:34:56.397Z,27.57
2023-04-16T04:35:56.381Z,27.58
2023-04-16T04:36:56.370Z,27.52
2023-04-16T04:37:56.356Z,27.55
2023-04-16T04:38:56.436Z,27.57
2023-04-16T04:39:56.389Z,27.53
2023-04-16T04:40:56.457Z,27.53
2023-04-16T04:41:56.432Z,27.60
2023-04-16T04:42:56.470Z,27.58
2023-04-16T04:43:56.493Z,27.57
2023-04-16T04:44:56.524Z,27.57
2023-04-16T04:45:56.586Z,27.61
2023-04-16T04:46:56.573Z,27.57
2023-04-16T04:47:56.647Z,27.53
2023-04-16T04:48:56.610Z,27.56
2023-04-16T04:49:56.650Z,27.53
2023-04-16T04:50:56.652Z,27.58
2023-04-16T04:51:56.666Z,27.57
2023-04-16T04:52:56.685Z,27.53
2023-04-16T04:53:56.760Z,27.56
2023-04-16T04:54:56.751Z,27.61
2023-04-16T04:55:58.694Z,27.52
2023-04-16T04:56:58.439Z,27.56
2023-04-16T04:57:56.765Z,27.56
2023-04-16T04:58:56.806Z,27.56
2023-04-16T04:59:56.810Z,27.60
2023-04-16T05:00:56.792Z,27.55
2023-04-16T05:01:56.769Z,27.56
2023-04-16T05:02:56.831Z,27.53
2023-04-16T05:03:56.781Z,27.57
2023-04-16T05:04:56.748Z,27.56
2023-04-16T05:05:56.710Z,27.58
2023-04-16T05:06:56.737Z,27.57
2023-04-16T05:07:56.712Z,27.54
2023-04-16T05:08:56.707Z,27.54
2023-04-16T05:09:56.732Z,27.55
2023-04-16T05:10:56.698Z,27.54
2023-04-16T05:11:56.713Z,27.51
2023-04-16T05:12:56.745Z,27.60
2023-04-16T05:13:56.771Z,27.57
2023-04-16T05:14:56.785Z,27.53
2023-04-16T05:15:56.804Z,27.48
2023-04-16T05:16:56.825Z,27.54
2023-04-16T05:17:56.844Z,27.57
2023-04-16T05:18:56.860Z,27.55
2023-04-16T05:19:56.870Z,27.58
2023-04-16T05:20:56.898Z,27.57
2023-04-16T05:21:56.943Z,27.54
2023-04-16T05:22:56.955Z,27.54
2023-04-16T05:23:56.998Z,27.54
2023-04-16T05:24:56.984Z,27.53
2023-04-16T05:25:57.041Z,27.53
2023-04-16T05:26:57.058Z,27.57
2023-04-16T05:27:57.082Z,27.57
2023-04-16T05:28:57.106Z,27.55
2023-04-16T05:29:57.111Z,27.61
2023-04-16T05:30:57.245Z,27.55
2023-04-16T05:31:57.190Z,27.55
2023-04-16T05:32:57.233Z,27.57
2023-04-16T05:33:57.228Z,27.54
2023-04-16T05:34:57.228Z,27.55
2023-04-16T05:35:57.241Z,27.56
2023-04-16T05:36:57.284Z,27.55
2023-04-16T05:37:57.305Z,27.50
2023-04-16T05:38:57.334Z,27.51
2023-04-16T05:39:57.338Z,27.57
2023-04-16T05:40:57.362Z,27.53
2023-04-16T05:41:57.373Z,27.51
2023-04-16T05:42:57.469Z,27.57
2023-04-16T05:43:57.451Z,27.53
2023-04-16T05:44:57.437Z,27.55
2023-04-16T05:45:57.492Z,27.54
2023-04-16T05:46:57.484Z,27.57
2023-04-16T05:47:57.561Z,27.53
2023-04-16T05:48:57.567Z,27.55
2023-04-16T05:49:57.576Z,27.51
2023-04-16T05:50:57.585Z,27.53
2023-04-16T05:51:57.721Z,27.54
2023-04-16T05:52:57.638Z,27.50
2023-04-16T05:53:57.697Z,27.57
2023-04-16T05:54:57.709Z,27.55
2023-04-16T05:55:57.741Z,27.51
2023-04-16T05:56:57.767Z,27.55
2023-04-16T05:57:57.783Z,27.50
2023-04-16T05:58:57.803Z,27.51
2023-04-16T05:59:57.863Z,27.54
2023-04-16T06:00:57.918Z,27.46
2023-04-16T06:01:57.929Z,27.50
2023-04-16T06:02:58.015Z,27.54
2023-04-16T06:03:58.109Z,27.51
2023-04-16T06:04:58.022Z,27.48
2023-04-16T06:05:58.222Z,27.50
2023-04-16T06:06:58.032Z,27.49
2023-04-16T06:07:58.088Z,27.49
2023-04-16T06:08:58.113Z,27.54
2023-04-16T06:09:58.132Z,27.51
2023-04-16T06:10:58.175Z,27.48
2023-04-16T06:11:58.209Z,27.52
2023-04-16T06:12:58.196Z,27.53
2023-04-16T06:13:58.242Z,27.48
2023-04-16T06:14:58.533Z,27.53
2023-04-16T06:15:58.289Z,27.48
2023-04-16T06:16:58.295Z,27.51
2023-04-16T06:18:00.205Z,27.50
2023-04-16T06:18:58.446Z,27.48
2023-04-16T06:19:58.451Z,27.47
2023-04-16T06:20:58.456Z,27.50
2023-04-16T06:21:58.488Z,27.53
2023-04-16T06:22:58.559Z,27.54
2023-04-16T06:23:58.527Z,27.53
2023-04-16T06:24:58.559Z,27.51
2023-04-16T06:25:58.615Z,27.50
2023-04-16T06:26:58.678Z,27.53
2023-04-16T06:27:58.667Z,27.50
2023-04-16T06:28:58.674Z,27.51
2023-04-16T06:29:58.723Z,27.44
2023-04-16T06:30:58.725Z,27.50
2023-04-16T06:31:58.780Z,27.51
2023-04-16T06:32:58.877Z,27.48
2023-04-16T06:33:58.844Z,27.50
2023-04-16T06:34:58.939Z,27.51
2023-04-16T06:35:58.925Z,27.51
2023-04-16T06:36:58.917Z,27.51
2023-04-16T06:37:58.950Z,27.48
2023-04-16T06:38:58.981Z,27.48
2023-04-16T06:39:58.993Z,27.50
2023-04-16T06:40:59.025Z,27.47
2023-04-16T06:41:59.065Z,27.48
2023-04-16T06:42:59.058Z,27.53
2023-04-16T06:43:59.107Z,27.48
2023-04-16T06:44:59.148Z,27.47
2023-04-16T06:45:59.145Z,27.47
2023-04-16T06:46:59.225Z,27.47
2023-04-16T06:47:59.234Z,27.47
2023-04-16T06:48:59.239Z,27.48
2023-04-16T06:49:59.245Z,27.49
2023-04-16T06:50:59.290Z,27.51
2023-04-16T06:51:59.352Z,27.51
2023-04-16T06:52:59.333Z,27.44
2023-04-16T06:53:59.391Z,27.48
2023-04-16T06:54:59.391Z,27.47
2023-04-16T06:55:59.416Z,27.48
2023-04-16T06:56:59.501Z,27.48
2023-04-16T06:57:59.499Z,27.51
2023-04-16T06:59:00.019Z,27.46
2023-04-16T06:59:59.592Z,27.44
2023-04-16T07:00:59.666Z,27.45
2023-04-16T07:01:59.679Z,27.45
2023-04-16T07:02:59.724Z,27.50
2023-04-16T07:03:59.853Z,27.43
2023-04-16T07:04:59.682Z,27.43
2023-04-16T07:05:59.717Z,27.40
2023-04-16T07:06:59.790Z,27.44
2023-04-16T07:07:59.859Z,27.43
2023-04-16T07:08:59.807Z,27.50
2023-04-16T07:09:59.885Z,27.43
2023-04-16T07:10:59.886Z,27.45
2023-04-16T07:11:59.859Z,27.40
2023-04-16T07:12:59.903Z,27.42
2023-04-16T07:14:00.005Z,27.39
2023-04-16T07:14:59.944Z,27.43
2023-04-16T07:16:00.014Z,27.39
2023-04-16T07:16:59.994Z,27.42
2023-04-16T07:18:00.153Z,27.43
2023-04-16T07:19:00.035Z,27.46
2023-04-16T07:20:00.156Z,27.43
2023-04-16T07:21:00.128Z,27.42
2023-04-16T07:22:00.141Z,27.43
2023-04-16T07:23:00.208Z,27.43
2023-04-16T07:24:00.191Z,27.42
2023-04-16T07:25:00.232Z,27.46
2023-04-16T07:26:00.300Z,27.45
2023-04-16T07:27:00.290Z,27.45
2023-04-16T07:28:00.340Z,27.39
2023-04-16T07:29:00.322Z,27.40
2023-04-16T07:30:00.384Z,27.38
2023-04-16T07:31:00.408Z,27.39
2023-04-16T07:32:00.456Z,27.41
2023-04-16T07:33:00.540Z,27.38
2023-04-16T07:34:00.428Z,27.36
2023-04-16T07:35:00.457Z,27.32
2023-04-16T07:36:00.511Z,27.36
2023-04-16T07:37:00.537Z,27.38
2023-04-16T07:38:00.608Z,27.35
2023-04-16T07:39:00.573Z,27.35
2023-04-16T07:40:00.627Z,27.32
2023-04-16T07:41:00.641Z,27.38
2023-04-16T07:42:00.711Z,27.33
2023-04-16T07:43:00.643Z,27.32
2023-04-16T07:44:00.659Z,27.36
2023-04-16T07:45:00.680Z,27.34
2023-04-16T07:46:00.773Z,27.32
2023-04-16T07:47:01.338Z,27.32
2023-04-16T07:48:00.890Z,27.32
2023-04-16T07:49:00.801Z,27.31
2023-04-16T07:50:00.819Z,27.30
2023-04-16T07:51:00.838Z,27.35
2023-04-16T07:52:00.862Z,27.34
2023-04-16T07:53:00.904Z,27.35
2023-04-16T07:54:00.907Z,27.29
2023-04-16T07:55:00.933Z,27.28
2023-04-16T07:56:00.919Z,27.31
2023-04-16T07:57:00.945Z,27.29
2023-04-16T07:58:00.959Z,27.34
2023-04-16T07:59:14.903Z,27.32
2023-04-16T08:00:01.994Z,27.30
2023-04-16T08:01:00.974Z,27.31
2023-04-16T08:02:01.094Z,27.30
2023-04-16T08:03:01.073Z,27.27
2023-04-16T08:04:01.114Z,27.30
2023-04-16T08:05:01.025Z,27.32
2023-04-16T08:06:00.958Z,27.32
2023-04-16T08:07:00.933Z,27.36
2023-04-16T08:08:00.918Z,27.27
2023-04-16T08:09:00.929Z,27.28
2023-04-16T08:10:00.932Z,27.31
2023-04-16T08:11:00.958Z,27.26
2023-04-16T08:12:00.897Z,27.31
2023-04-16T08:13:00.916Z,27.29
2023-04-16T08:14:00.912Z,27.28
2023-04-16T08:15:00.894Z,27.34
2023-04-16T08:16:00.943Z,27.31
2023-04-16T08:17:00.888Z,27.24
2023-04-16T08:18:00.979Z,27.24
2023-04-16T08:19:00.856Z,27.28
2023-04-16T08:20:00.907Z,27.30
2023-04-16T08:21:00.847Z,27.31
2023-04-16T08:22:00.860Z,27.27
2023-04-16T08:23:00.865Z,27.27
2023-04-16T08:24:00.911Z,27.32
2023-04-16T08:25:00.904Z,27.30
2023-04-16T08:26:00.932Z,27.31
2023-04-16T08:27:11.499Z,27.31
2023-04-16T08:28:01.963Z,27.27
2023-04-16T08:29:00.952Z,27.34
2023-04-16T08:30:00.953Z,27.33
2023-04-16T08:31:00.966Z,27.32
2023-04-16T08:32:00.908Z,27.31
2023-04-16T08:33:00.939Z,27.28
2023-04-16T08:34:00.926Z,27.29
2023-04-16T08:35:00.906Z,27.31
2023-04-16T08:36:00.916Z,27.28
2023-04-16T08:37:00.866Z,27.31
2023-04-16T08:38:02.361Z,27.31
2023-04-16T08:39:00.879Z,27.31
2023-04-16T08:40:00.862Z,27.32
2023-04-16T08:41:00.828Z,27.30
2023-04-16T08:42:00.839Z,27.31
2023-04-16T08:43:00.822Z,27.29
2023-04-16T08:44:00.844Z,27.31
2023-04-16T08:45:00.809Z,27.30
2023-04-16T08:46:00.850Z,27.28
2023-04-16T08:47:00.986Z,27.22
2023-04-16T08:48:00.934Z,27.23
2023-04-16T08:49:00.896Z,27.24
2023-04-16T08:50:00.939Z,27.23
2023-04-16T08:51:00.928Z,27.24
2023-04-16T08:52:00.959Z,27.31
2023-04-16T08:53:00.982Z,27.26
2023-04-16T08:54:01.013Z,27.27
2023-04-16T08:55:01.026Z,27.26
2023-04-16T08:56:01.035Z,27.23
2023-04-16T08:57:01.095Z,27.23
2023-04-16T08:58:01.105Z,27.26
2023-04-16T08:59:01.145Z,27.27
2023-04-16T09:00:01.160Z,27.26
2023-04-16T09:01:01.118Z,27.24
2023-04-16T09:02:01.242Z,27.26
2023-04-16T09:03:01.361Z,27.30
2023-04-16T09:04:01.528Z,27.24
2023-04-16T09:05:01.358Z,27.30
2023-04-16T09:06:01.255Z,27.27
2023-04-16T09:07:01.278Z,27.28
2023-04-16T09:08:01.324Z,27.27
2023-04-16T09:09:01.301Z,27.27
2023-04-16T09:10:01.312Z,27.30
2023-04-16T09:11:01.339Z,27.26
2023-04-16T09:12:01.395Z,27.28
2023-04-16T09:13:01.380Z,27.27
2023-04-16T09:14:01.443Z,27.27
2023-04-16T09:15:01.434Z,27.31
2023-04-16T09:16:01.542Z,27.30
2023-04-16T09:17:01.455Z,27.27
2023-04-16T09:18:01.515Z,27.28
2023-04-16T09:19:01.514Z,27.22
2023-04-16T09:20:01.616Z,27.27
2023-04-16T09:21:01.558Z,27.30
2023-04-16T09:22:01.565Z,27.27
2023-04-16T09:23:01.603Z,27.30
2023-04-16T09:24:01.633Z,27.26
2023-04-16T09:25:01.661Z,27.28
2023-04-16T09:26:01.672Z,27.30
2023-04-16T09:27:01.687Z,27.30
2023-04-16T09:28:01.750Z,27.28
2023-04-16T09:29:01.737Z,27.27
2023-04-16T09:30:01.913Z,27.28
2023-04-16T09:31:01.777Z,27.30
2023-04-16T09:32:01.848Z,27.28
2023-04-16T09:33:01.866Z,27.26
2023-04-16T09:34:01.865Z,27.30
2023-04-16T09:35:01.925Z,27.26
2023-04-16T09:36:01.889Z,27.28
2023-04-16T09:37:02.066Z,27.30
2023-04-16T09:38:02.574Z,27.34
2023-04-16T09:39:01.951Z,27.28
2023-04-16T09:40:02.040Z,27.32
2023-04-16T09:41:02.101Z,27.31
2023-04-16T09:42:02.076Z,27.28
2023-04-16T09:43:02.090Z,27.30
2023-04-16T09:44:02.235Z,27.28
2023-04-16T09:45:03.490Z,27.27
2023-04-16T09:46:03.816Z,27.30
2023-04-16T09:47:03.157Z,27.28
2023-04-16T09:48:02.159Z,27.31
2023-04-16T09:49:02.611Z,27.30
2023-04-16T09:50:02.064Z,27.28
2023-04-16T09:51:02.240Z,27.28
2023-04-16T09:52:02.187Z,27.27
2023-04-16T09:53:02.089Z,27.24
2023-04-16T09:54:02.052Z,27.27
2023-04-16T09:55:02.095Z,27.26
2023-04-16T09:56:02.078Z,27.26
2023-04-16T09:57:02.076Z,27.28
2023-04-16T09:58:02.174Z,27.23
2023-04-16T09:59:02.055Z,27.26
2023-04-16T10:00:02.085Z,27.19
2023-04-16T10:01:02.065Z,27.17
2023-04-16T10:02:14.383Z,27.24
2023-04-16T10:03:03.124Z,27.22
2023-04-16T10:04:02.032Z,27.17
2023-04-16T10:05:02.064Z,27.20
2023-04-16T10:06:02.025Z,27.22
2023-04-16T10:07:02.098Z,27.17
2023-04-16T10:08:01.943Z,27.15
2023-04-16T10:09:01.974Z,27.17
2023-04-16T10:10:01.942Z,27.15
2023-04-16T10:11:01.985Z,27.17
2023-04-16T10:12:01.922Z,27.11
2023-04-16T10:13:01.944Z,27.13
2023-04-16T10:14:01.910Z,27.11
2023-04-16T10:15:01.915Z,27.10
2023-04-16T10:16:01.907Z,27.12
2023-04-16T10:17:01.948Z,27.08
2023-04-16T10:18:01.946Z,27.08
2023-04-16T10:19:01.939Z,27.04
2023-04-16T10:20:01.981Z,27.04
2023-04-16T10:21:01.863Z,27.04
2023-04-16T10:22:01.848Z,27.04
2023-04-16T10:23:01.845Z,26.96
2023-04-16T10:24:02.012Z,27.00
2023-04-16T10:25:01.853Z,27.03
2023-04-16T10:26:01.901Z,26.95
2023-04-16T10:27:01.900Z,27.02
2023-04-16T10:28:01.872Z,26.95
2023-04-16T10:29:01.883Z,26.99
2023-04-16T10:30:01.908Z,26.98
2023-04-16T10:31:01.937Z,26.98
2023-04-16T10:32:01.934Z,26.98
2023-04-16T10:33:01.985Z,26.95
2023-04-16T10:34:01.973Z,26.91
2023-04-16T10:35:42.053Z,26.95
2023-04-16T10:36:42.041Z,26.96
2023-04-16T10:37:42.083Z,26.93
2023-04-16T10:38:42.060Z,26.92
2023-04-16T10:39:42.026Z,26.94
2023-04-16T10:40:42.059Z,26.92
2023-04-16T10:41:43.013Z,26.95
2023-04-16T10:42:42.002Z,26.93
2023-04-16T10:43:42.015Z,26.95
2023-04-16T10:44:44.591Z,26.98
2023-04-16T10:45:41.980Z,26.92
2023-04-16T10:46:42.184Z,26.99
2023-04-16T10:47:42.002Z,26.98
2023-04-16T10:48:49.706Z,26.92
2023-04-16T10:49:43.008Z,26.96
2023-04-16T10:50:41.969Z,26.95
2023-04-16T10:51:41.925Z,26.95
2023-04-16T10:52:41.963Z,27.01
2023-04-16T10:53:41.919Z,26.96
2023-04-16T10:54:41.942Z,26.99
2023-04-16T10:55:41.919Z,26.95
2023-04-16T10:56:41.908Z,26.92
2023-04-16T10:57:41.913Z,26.95
2023-04-16T10:58:41.907Z,26.92
2023-04-16T10:59:41.881Z,26.92
2023-04-16T11:00:41.866Z,26.92
2023-04-16T11:01:41.883Z,26.94
2023-04-16T11:02:42.073Z,26.96
2023-04-16T11:03:42.070Z,26.98
2023-04-16T11:04:41.944Z,26.95
2023-04-16T11:05:41.843Z,26.90
2023-04-16T11:06:41.858Z,26.99
2023-04-16T11:07:41.824Z,26.97
2023-04-16T11:08:53.883Z,26.95
2023-04-16T11:09:42.829Z,26.95
2023-04-16T11:10:41.881Z,26.94
2023-04-16T11:11:41.813Z,26.97
2023-04-16T11:12:41.822Z,26.95
2023-04-16T11:13:43.153Z,26.92
2023-04-16T11:14:41.781Z,26.94
2023-04-16T11:15:41.832Z,26.94
2023-04-16T11:16:41.799Z,26.94
2023-04-16T11:17:41.827Z,26.94
2023-04-16T11:18:50.789Z,26.97
2023-04-16T11:19:42.771Z,26.98
2023-04-16T11:20:41.756Z,26.96
2023-04-16T11:21:41.728Z,26.99
2023-04-16T11:22:41.746Z,26.99
2023-04-16T11:23:41.726Z,26.95
2023-04-16T11:24:41.718Z,26.94
2023-04-16T11:25:41.719Z,26.99
2023-04-16T11:26:41.691Z,26.95
2023-04-16T11:27:41.706Z,26.95
2023-04-16T11:28:41.693Z,26.99
2023-04-16T11:29:41.671Z,26.97
2023-04-16T11:30:41.680Z,26.96
2023-04-16T11:31:41.686Z,26.99
2023-04-16T11:32:41.770Z,26.99
2023-04-16T11:33:41.669Z,26.95
2023-04-16T11:34:41.676Z,26.95
2023-04-16T11:35:41.745Z,27.04
2023-04-16T11:36:41.638Z,26.96
2023-04-16T11:37:41.639Z,26.94
2023-04-16T11:38:41.613Z,26.98
2023-04-16T11:39:41.631Z,26.99
2023-04-16T11:40:41.599Z,27.01
2023-04-16T11:41:41.638Z,27.01
2023-04-16T11:42:41.647Z,26.96
2023-04-16T11:43:41.612Z,26.97
2023-04-16T11:44:41.600Z,27.02
2023-04-16T11:45:41.594Z,26.98
2023-04-16T11:46:41.623Z,26.94
2023-04-16T11:47:41.610Z,26.99
2023-04-16T11:48:41.547Z,26.98
2023-04-16T11:49:41.555Z,27.02
2023-04-16T11:50:41.546Z,27.01
2023-04-16T11:51:41.566Z,27.01
2023-04-16T11:52:41.584Z,27.01
2023-04-16T11:53:41.543Z,27.01
2023-04-16T11:54:41.507Z,27.01
2023-04-16T11:55:41.513Z,27.01
2023-04-16T11:56:41.517Z,26.96
2023-04-16T11:57:41.511Z,27.03
2023-04-16T11:58:43.198Z,26.98
2023-04-16T12:00:01.616Z,26.98
2023-04-16T12:00:42.496Z,27.02
2023-04-16T12:01:41.505Z,26.99
2023-04-16T12:02:41.629Z,26.99
2023-04-16T12:03:41.604Z,27.02
2023-04-16T12:04:41.543Z,27.02
2023-04-16T12:05:41.450Z,27.03
2023-04-16T12:06:41.421Z,27.01
2023-04-16T12:07:41.490Z,27.04
2023-04-16T12:08:41.455Z,26.98
2023-04-16T12:09:41.431Z,26.98
2023-04-16T12:10:41.392Z,27.01
2023-04-16T12:11:41.425Z,27.02
2023-04-16T12:12:41.397Z,27.01
2023-04-16T12:13:41.388Z,27.04
2023-04-16T12:14:41.368Z,27.05
2023-04-16T12:15:41.391Z,27.03
2023-04-16T12:16:41.379Z,27.03
2023-04-16T12:17:41.369Z,27.10
2023-04-16T12:18:41.375Z,27.04
2023-04-16T12:19:41.359Z,27.06
2023-04-16T12:20:41.351Z,27.06
2023-04-16T12:21:41.331Z,27.10
2023-04-16T12:22:41.311Z,27.09
2023-04-16T12:23:41.330Z,27.14
2023-04-16T12:24:41.389Z,27.15
2023-04-16T12:25:41.308Z,27.06
2023-04-16T12:26:41.285Z,27.07
2023-04-16T12:27:41.312Z,27.10
2023-04-16T12:28:41.276Z,27.09
2023-04-16T12:29:41.254Z,27.14
2023-04-16T12:30:41.333Z,27.13
2023-04-16T12:31:41.249Z,27.09
2023-04-16T12:32:41.333Z,27.16
2023-04-16T12:33:41.254Z,27.13
2023-04-16T12:34:48.361Z,27.14
2023-04-16T12:35:42.284Z,27.17
2023-04-16T12:36:41.259Z,27.15
2023-04-16T12:37:41.249Z,27.17
2023-04-16T12:38:41.250Z,27.13
2023-04-16T12:39:41.228Z,27.14
2023-04-16T12:40:41.241Z,27.18
2023-04-16T12:41:41.202Z,27.18
2023-04-16T12:42:41.222Z,27.20
2023-04-16T12:43:41.242Z,27.14
2023-04-16T12:44:41.236Z,27.14
2023-04-16T12:45:41.181Z,27.18
2023-04-16T12:46:41.198Z,27.14
2023-04-16T12:47:41.248Z,27.20
2023-04-16T12:48:41.177Z,27.17
2023-04-16T12:49:41.162Z,27.19
2023-04-16T12:50:41.139Z,27.20
2023-04-16T12:51:41.155Z,27.18
2023-04-16T12:52:41.173Z,27.20
2023-04-16T12:53:41.152Z,27.21
2023-04-16T12:54:41.136Z,27.17